Latest Coastal Weather Observations for Broome

IDW60701

Issued at 4:25 am WST Thursday 24 July 2014 (issued every 10 minutes, with the page automatically refreshed every 10 minutes)

About coastal observations | Map of coastal stations | Coastal observations for WA | Marine services | Other Formats
Station Details ID: 003003 Name: BROOME AIRPORT Lat: -17.95 Lon: 122.24 Height: 7.42 m
Data from the previous 72 hours. | See also: Recent months at Broome
Date/Time
WST
Temp

°C
Wind Pressure Rain
since 9am
mm
Weather Cloud Vis
km
Sea
Height
m
Swell
Dir
 
Speed
knots
Gust
knots
hPa Trend Height
m
Period
s
Dir
24/04:00am 19.9 SSE 11 17 1015.2 - 0.0 - - 10 - - - -
24/03:30am 20.0 SE 9 15 1015.2 - 0.0 - - 10 - - - -
24/03:00am 20.4 SSE 9 11 1015.0 - 0.0 - - 10 - - - -
24/02:30am 20.6 SSE 9 12 1015.1 - 0.0 - - 10 - - - -
24/02:00am 21.0 SSE 8 11 1015.0 - 0.0 - - 10 - - - -
24/01:30am 21.0 SSE 8 11 1014.9 - 0.0 - - 10 - - - -
24/01:00am 21.2 SSE 7 10 1015.1 - 0.0 - - 10 - - - -
24/12:30am 21.2 SSE 8 10 1015.0 - 0.0 - - 10 - - - -
24/12:00am 21.4 SSE 7 8 1015.0 - 0.0 - - 10 - - - -
 
Date/Time
WST
Temp

°C
Wind Pressure Rain
since 9am
mm
Weather Cloud Vis
km
Sea
Height
m
Swell
Dir
 
Speed
knots
Gust
knots
hPa Trend Height
m
Period
s
Dir
23/11:30pm 21.4 SSE 6 8 1015.1 - 0.0 - - 10 - - - -
23/11:00pm 21.8 SE 6 8 1015.1 - 0.0 - - 10 - - - -
23/10:30pm 21.9 S 5 7 1015.2 - 0.0 - - 10 - - - -
23/10:00pm 22.6 SSE 7 10 1015.2 - 0.0 - - 10 - - - -
23/09:30pm 23.3 S 8 12 1015.2 - 0.0 - - 10 - - - -
23/09:00pm 23.3 S 7 9 1014.9 R 0.0 Fine Clear 40 - - - -
23/08:30pm 23.5 SW 8 11 1014.7 - 0.0 - - 10 - - - -
23/08:00pm 23.5 SW 10 12 1014.4 - 0.0 - - 10 - - - -
23/07:30pm 23.6 WSW 8 10 1014.0 - 0.0 - - 10 - - - -
23/07:00pm 23.7 SW 12 16 1013.7 - 0.0 - - 10 - - - -
23/06:30pm 23.3 SW 11 14 1013.5 - 0.0 - - 10 - - - -
23/06:00pm 23.5 SW 11 15 1013.2 F 0.0 Smoke Mostly clear 15 - - - -
23/05:30pm 23.8 WSW 11 16 1013.1 - 0.0 - - 10 - - - -
23/05:00pm 25.2 WSW 10 15 1012.9 - 0.0 - - 10 - - - -
23/04:30pm 26.3 WSW 11 14 1012.6 - 0.0 - - 10 - - - -
23/04:00pm 28.5 WSW 9 12 1012.6 - 0.0 - - 10 - - - -
23/03:30pm 29.4 WSW 10 13 1012.6 - 0.0 - - 10 - - - -
23/03:00pm 30.1 SW 10 13 1012.5 R 0.0 Fine Mostly clear 40 - - - -
23/02:30pm 29.5 S 9 13 1012.6 - 0.0 - - 10 - - - -
23/02:00pm 29.5 S 8 11 1012.7 - 0.0 - - 10 - - - -
23/01:30pm 29.3 S 7 11 1013.0 - 0.0 - - 10 - - - -
23/01:00pm 28.8 S 7 10 1013.3 - 0.0 - - 10 - - - -
23/12:30pm 28.9 S 7 9 1013.9 - 0.0 - - 10 - - - -
23/12:00pm 28.5 SSE 7 9 1014.3 F 0.0 Fine Mostly clear 40 - - - -
23/11:30am 27.5 SSE 8 10 1015.0 - 0.0 - - 10 - - - -
23/11:00am 26.8 SE 8 10 1015.6 - 0.0 - - 10 - - - -
23/10:30am 25.6 ESE 7 9 1016.3 - 0.0 - - 10 - - - -
23/10:00am 23.5 SE 6 8 1016.8 - 0.0 - Partly cloudy 10 - - - -
23/09:30am 22.8 SE 6 8 1017.0 - 0.0 - Partly cloudy 10 - - - -
23/09:00am 22.8 SE 6 7 1017.0 R 0.0 Fine Mostly clear 40 - - - -
23/08:30am 21.7 SE 5 8 1017.1 - 0.0 - Partly cloudy 10 - - - -
23/08:00am 21.6 SE 5 7 1016.9 - 0.0 - Partly cloudy 10 - - - -
23/07:30am 20.6 SE 5 6 1016.6 - 0.0 - Partly cloudy 10 - - - -
23/07:00am 20.2 SSE 3 5 1016.3 - 0.0 - Partly cloudy 10 - - - -
23/06:30am 20.0 SSE 6 8 1016.1 - 0.0 - Partly cloudy 10 - - - -
23/06:00am 20.0 S 4 5 1015.5 F 0.0 Fine Partly cloudy 40 - - - -
23/05:30am 20.0 SSE 5 7 1015.2 - 0.0 - - 10 - - - -
23/05:00am 20.2 SSE 5 7 1014.9 - 0.0 - - 10 - - - -
23/04:30am 20.3 SSE 5 8 1014.7 - 0.0 - - 10 - - - -
23/04:00am 20.3 S 4 6 1014.8 - 0.0 - Partly cloudy 10 - - - -
23/03:30am 20.2 SSE 3 5 1015.0 - 0.0 - Partly cloudy 10 - - - -
23/03:00am 20.8 S 5 8 1014.9 - 0.0 - Partly cloudy 10 - - - -
23/02:30am 20.8 S 6 8 1015.0 - 0.0 - Partly cloudy 10 - - - -
23/02:00am 20.8 S 6 8 1014.9 - 0.0 - - 10 - - - -
23/01:30am 21.0 SSW 6 7 1015.0 - 0.0 - Partly cloudy 10 - - - -
23/01:00am 21.3 SSW 5 6 1015.0 - 0.0 - Partly cloudy 10 - - - -
23/12:30am 21.3 SW 5 7 1015.1 - 0.0 - - 10 - - - -
23/12:00am 21.4 SSW 4 5 1015.1 - 0.0 - - 10 - - - -
 
Date/Time
WST
Temp

°C
Wind Pressure Rain
since 9am
mm
Weather Cloud Vis
km
Sea
Height
m
Swell
Dir
 
Speed
knots
Gust
knots
hPa Trend Height
m
Period
s
Dir
22/11:30pm 21.5 SSW 2 4 1015.3 - 0.0 - - 10 - - - -
22/11:00pm 22.1 SSW 5 6 1015.4 - 0.0 - - 10 - - - -
22/10:30pm 22.1 SSW 5 6 1015.6 - 0.0 - - 10 - - - -
22/10:00pm 22.6 SW 6 8 1015.7 - 0.0 - Partly cloudy 10 - - - -
22/09:30pm 23.2 SSW 6 7 1015.7 - 0.0 - Cloudy 10 - - - -
22/09:00pm 23.6 SSW 5 8 1015.5 S 0.0 Fine Mostly cloudy 30 - - - -
22/08:30pm 23.7 SW 6 7 1015.5 - 0.0 - Cloudy 10 - - - -
22/08:00pm 23.4 SW 7 10 1015.5 - 0.0 - Cloudy 10 - - - -
22/07:30pm 23.3 SW 5 6 1015.3 - 0.0 - Partly cloudy 10 - - - -
22/07:00pm 23.1 SW 7 9 1015.0 - 0.0 - - 10 - - - -
22/06:30pm 23.2 SW 7 9 1014.6 - 0.0 - Partly cloudy 10 - - - -
22/06:00pm 23.5 SW 6 8 1014.1 F 0.0 Fine Mostly clear 30 - - - -
22/05:30pm 24.3 SW 7 9 1014.0 - 0.0 - Partly cloudy 10 - - - -
22/05:00pm 24.8 SW 7 9 1013.8 - 0.0 - Mostly clear 10 - - - -
22/04:30pm 26.1 WSW 8 11 1013.9 - 0.0 - Mostly clear 10 - - - -
22/04:00pm 26.3 SW 10 14 1013.8 - 0.0 - Mostly clear 10 - - - -
22/03:30pm 26.8 WSW 10 13 1013.7 - 0.0 - Mostly clear 10 - - - -
22/03:00pm 27.0 SW 10 15 1013.7 R 0.0 Fine Mostly clear 40 - - - -
22/02:30pm 27.2 W 9 13 1013.8 - 0.0 - Mostly clear 10 - - - -
22/02:00pm 27.5 W 8 11 1013.8 - 0.0 - Mostly clear 10 - - - -
22/01:30pm 27.7 W 8 11 1013.9 - 0.0 - Mostly clear 10 - - - -
22/01:00pm 27.2 W 10 14 1014.5 - 0.0 - Mostly clear 10 - - - -
22/12:30pm 27.3 W 9 12 1015.0 - 0.0 - Mostly clear 10 - - - -
22/12:00pm 27.3 W 9 12 1015.3 R 0.0 Fine Mostly clear 40 - - - -
22/11:30am 27.5 W 8 11 1015.8 - 0.0 - Mostly clear 10 - - - -
22/11:00am 27.4 W 7 11 1016.2 - 0.0 - Mostly clear 10 - - - -
22/10:30am 27.2 W 7 10 1016.5 - 0.0 - - 10 - - - -
22/10:00am 26.3 W 6 10 1016.8 - 0.0 - Mostly clear 10 - - - -
22/09:30am 25.9 NNW 3 4 1017.0 - 0.0 - Mostly clear 10 - - - -
22/09:00am 23.6 NE 3 5 1016.9 R 0.0 Haze Mostly cloudy 20 - - - -
22/08:30am 22.4 N 1 4 1017.2 - 0.0 - Mostly clear 10 - - - -
22/08:00am 21.1 CALM 0 0 1017.0 - 0.0 - Mostly clear 10 - - - -
22/07:47am 21.0 CALM 0 0 1017.0 - 0.0 - Mostly clear 10 - - - -
22/07:36am 20.6 CALM 0 - 1016.9 - 0.0 Fog Partly cloudy 0.9 - - - -
22/07:27am 20.3 CALM 0 - 1016.8 - 0.0 Fog Cloudy 0.4 - - - -
22/07:00am 19.3 CALM 0 - 1016.3 - 0.0 Fog Cloudy 0.8 - - - -
22/06:46am 18.7 CALM 0 0 1015.9 - 0.0 Fog Cloudy 0.8 - - - -
22/06:30am 18.5 CALM 0 0 1015.6 - 0.0 - Mostly clear 10 - - - -
22/06:00am 17.2 CALM 0 0 1014.3 F 0.0 Haze Mostly cloudy 20 - - - -
22/05:30am 18.7 CALM 0 0 1014.9 - 0.0 - Cloudy 10 - - - -
22/05:00am 19.1 CALM 0 0 1014.7 - 0.0 - Cloudy 10 - - - -
22/04:30am 18.9 CALM 0 0 1014.7 - 0.0 - Partly cloudy 10 - - - -
22/04:00am 18.7 CALM 0 0 1014.5 - 0.0 - Partly cloudy 10 - - - -
22/03:30am 18.0 CALM 0 0 1014.5 - 0.0 - Cloudy 10 - - - -
22/03:00am 17.2 CALM 0 0 1014.3 - 0.0 - Mostly cloudy 10 - - - -
22/02:30am 16.9 CALM 0 0 1014.2 - 0.0 - Partly cloudy 10 - - - -
22/02:00am 17.2 CALM 0 0 1014.2 - 0.0 - - 10 - - - -
22/01:30am 17.8 CALM 0 0 1014.1 - 0.0 - - 10 - - - -
22/01:00am 18.2 CALM 0 0 1014.2 - 0.0 - - 10 - - - -
22/12:30am 18.7 CALM 0 0 1014.4 - 0.0 - - 10 - - - -
22/12:00am 18.7 CALM 0 0 1014.3 - 0.0 - - 10 - - - -
 
Date/Time
WST
Temp

°C
Wind Pressure Rain
since 9am
mm
Weather Cloud Vis
km
Sea
Height
m
Swell
Dir
 
Speed
knots
Gust
knots
hPa Trend Height
m
Period
s
Dir
21/11:30pm 19.1 CALM 0 0 1014.5 - 0.0 - - 10 - - - -
21/11:00pm 20.0 CALM 0 0 1014.8 - 0.0 - - 10 - - - -
21/10:30pm 21.4 CALM 0 3 1015.1 - 0.0 - - 10 - - - -
21/10:00pm 22.6 NW 4 5 1015.1 - 0.0 - - 10 - - - -
21/09:30pm 22.7 NNW 4 6 1015.3 - 0.0 - - 10 - - - -
21/09:00pm 23.1 N 6 8 1015.1 F 0.0 Fine Mostly cloudy 40 - - - -
21/08:30pm 23.0 NNW 5 7 1015.1 - 0.0 - - 10 - - - -
21/08:00pm 23.4 NNW 6 8 1015.2 - 0.0 - - 10 - - - -
21/07:30pm 23.6 NNW 6 8 1014.9 - 0.0 - - 10 - - - -
21/07:00pm 23.4 NW 5 6 1014.7 - 0.0 - - 10 - - - -
21/06:30pm 24.0 NW 6 7 1014.4 - 0.0 - - 10 - - - -
21/06:00pm 24.3 NW 6 8 1014.1 R 0.0 Fine Mostly clear 40 - - - -
21/05:30pm 25.0 NW 6 9 1013.9 - 0.0 - - 10 - - - -
21/05:00pm 26.2 NW 7 10 1013.5 - 0.0 - - 10 - - - -
21/04:30pm 27.0 WNW 6 9 1013.2 - 0.0 - - 10 - - - -
21/04:00pm 26.9 W 9 11 1012.9 - 0.0 - - 10 - - - -
21/03:30pm 27.7 W 8 11 1012.9 - 0.0 - - 10 - - - -
21/03:00pm 29.4 W 8 11 1012.6 S 0.0 Fine Mostly cloudy 40 - - - -
21/02:30pm 28.8 W 8 11 1013.0 - 0.0 - Partly cloudy 10 - - - -
21/02:00pm 29.3 WSW 9 12 1013.0 - 0.0 - Partly cloudy 10 - - - -
21/01:30pm 31.6 SSE 5 8 1013.0 - 0.0 - Partly cloudy 10 - - - -
21/01:00pm 30.6 SSE 5 7 1013.4 - 0.0 - Partly cloudy 10 - - - -
21/12:30pm 30.1 SSE 6 9 1013.9 - 0.0 - - 10 - - - -
21/12:00pm 30.4 SE 6 9 1014.6 F 0.0 Fine Mostly clear 40 - - - -
21/11:30am 29.8 ESE 7 9 1015.4 - 0.0 - - 10 - - - -
21/11:00am 29.5 ESE 7 12 1016.0 - 0.0 - - 10 - - - -
21/10:30am 28.0 ESE 7 10 1016.5 - 0.0 - - 10 - - - -
21/10:00am 26.9 ESE 7 9 1017.1 - 0.0 - - 10 - - - -
21/09:30am 25.1 ESE 6 8 1017.3 - 0.0 - - 10 - - - -
21/09:00am 24.9 ESE 8 12 1017.3 F 0.0 Fine Partly cloudy 40 - - - -
21/08:30am 24.7 E 5 7 1017.5 - 0.0 - - 10 - - - -
21/08:00am 23.7 SE 2 3 1017.6 - 0.0 - - 10 - - - -
21/07:30am 21.6 CALM 0 0 1017.4 - 0.0 - - 10 - - - -
21/07:00am 19.6 CALM 0 0 1017.0 - 0.0 - - 10 - - - -
21/06:30am 18.0 CALM 0 0 1016.7 - 0.0 - - 10 - - - -
21/06:00am 19.0 CALM 0 0 1016.3 R 0.0 Fine Partly cloudy 40 - - - -
21/05:30am 20.0 CALM 0 0 1016.2 - 0.0 - - 10 - - - -
21/05:00am 21.3 SSW 3 4 1015.8 - 0.0 - - 10 - - - -
21/04:30am 21.5 S 5 6 1015.5 - 0.0 - - 10 - - - -

Other Formats:

Comma delimited format used in spreadsheet applications
http://www.bom.gov.au/fwo/IDW60701/IDW60701.94203.axf

JavaScript Object Notation format (JSON) in row-major order
http://www.bom.gov.au/fwo/IDW60701/IDW60701.94203.json